Time;durP1;ratioP1;P1;durP2;ratioP2;P2;SDS_P1;SDS_P2;PMS_P1;PMS_P2;Temp;Humidity;BMP_temperature;BMP_pressure;BME280_temperature;BME280_humidity;BME280_pressure;Samples;Min_cycle;Max_cycle;Signal;HPM_P1;HPM_P2
2022/03/28 00:00:31;;;;;;;20.50;4.28;;;;;;;7.79;95.67;102708.00;5079832;28;20773;-63
2022/03/28 00:02:59;;;;;;;22.40;4.65;;;;;;;7.88;94.54;102706.91;5083471;28;20051;-63
2022/03/28 00:05:27;;;;;;;17.58;4.03;;;;;;;7.87;94.89;102706.06;5080691;28;20386;-63
2022/03/28 00:07:55;;;;;;;20.77;3.97;;;;;;;7.84;94.93;102706.16;5083775;28;20036;-63
2022/03/28 00:10:24;;;;;;;18.58;4.10;;;;;;;7.82;95.70;102707.94;5083560;28;20479;-63
2022/03/28 00:12:52;;;;;;;13.85;3.83;;;;;;;7.76;96.09;102701.06;5083542;28;20059;-63
2022/03/28 00:15:20;;;;;;;23.08;5.15;;;;;;;7.62;97.39;102695.28;5077605;28;20048;-58
2022/03/28 00:17:50;;;;;;;23.55;4.20;;;;;;;7.54;97.69;102700.72;5080468;28;20032;-58
2022/03/28 00:20:18;;;;;;;15.63;3.70;;;;;;;7.52;97.86;102691.19;5080284;28;20059;-58
2022/03/28 00:22:46;;;;;;;22.15;4.05;;;;;;;7.52;98.35;102689.41;5083120;28;20475;-58
2022/03/28 00:25:15;;;;;;;17.52;4.28;;;;;;;7.44;99.17;102678.25;5084453;28;20102;-63
2022/03/28 00:27:43;;;;;;;25.20;4.22;;;;;;;7.37;100.00;102674.91;5082657;28;20071;-60
2022/03/28 00:30:12;;;;;;;18.08;4.05;;;;;;;7.33;100.00;102678.50;5070948;28;20045;-61
2022/03/28 00:32:41;;;;;;;18.95;3.83;;;;;;;7.27;100.00;102684.72;5086928;28;20463;-60
2022/03/28 00:35:10;;;;;;;20.17;4.45;;;;;;;7.28;100.00;102686.47;5089030;28;20040;-62
2022/03/28 00:37:41;;;;;;;15.60;3.50;;;;;;;7.25;100.00;102681.31;5084076;28;20396;-62
2022/03/28 00:40:11;;;;;;;20.13;4.05;;;;;;;7.26;100.00;102675.16;5071037;28;20634;-62
2022/03/28 00:42:39;;;;;;;18.10;4.50;;;;;;;7.27;100.00;102674.25;5078941;28;20044;-62
2022/03/28 00:45:09;;;;;;;18.67;3.75;;;;;;;7.26;100.00;102672.53;5089137;28;20036;-61
2022/03/28 00:47:37;;;;;;;18.05;3.58;;;;;;;7.31;100.00;102671.56;5084475;28;20059;-62
2022/03/28 00:50:06;;;;;;;17.27;3.67;;;;;;;7.36;98.87;102664.47;5069727;28;20646;-61
2022/03/28 00:52:37;;;;;;;14.65;3.30;;;;;;;7.39;99.54;102664.41;5066247;28;20040;-62
2022/03/28 00:55:07;;;;;;;19.80;4.13;;;;;;;7.41;98.51;102662.63;5070833;28;20514;-61
2022/03/28 00:57:35;;;;;;;15.90;3.78;;;;;;;7.32;98.88;102657.59;5078623;28;20040;-62
2022/03/28 01:00:09;;;;;;;16.48;3.85;;;;;;;7.33;99.48;102660.16;5092867;28;20054;-62
2022/03/28 01:02:38;;;;;;;18.85;3.78;;;;;;;7.20;100.00;102650.88;5084303;28;20052;-62
2022/03/28 01:05:07;;;;;;;14.57;4.00;;;;;;;7.19;100.00;102649.16;5072657;28;20049;-61
2022/03/28 01:07:38;;;;;;;15.52;3.95;;;;;;;7.18;100.00;102636.97;5087343;28;20051;-61
2022/03/28 01:10:10;;;;;;;19.65;4.15;;;;;;;7.20;100.00;102646.50;5069870;28;20049;-62
2022/03/28 01:12:42;;;;;;;20.60;4.30;;;;;;;7.15;100.00;102637.91;5088905;28;20391;-62
2022/03/28 01:15:13;;;;;;;18.80;3.60;;;;;;;7.01;100.00;102630.34;5075296;28;20284;-62
2022/03/28 01:20:27;;;;;;;19.95;4.18;;;;;;;6.94;100.00;102632.25;5071131;28;20478;-61
2022/03/28 01:22:57;;;;;;;19.35;4.60;;;;;;;6.96;100.00;102631.34;5075511;28;20078;-62
2022/03/28 01:25:29;;;;;;;21.20;4.85;;;;;;;6.97;100.00;102633.94;5072904;28;20048;-61
2022/03/28 01:28:00;;;;;;;14.77;3.78;;;;;;;6.96;100.00;102623.50;5073472;28;20127;-61
2022/03/28 01:30:29;;;;;;;18.17;3.72;;;;;;;6.97;100.00;102618.22;5079075;28;20048;-62
2022/03/28 01:33:00;;;;;;;17.33;3.90;;;;;;;6.96;100.00;102618.28;5074234;28;20044;-62
2022/03/28 01:35:30;;;;;;;21.58;4.53;;;;;;;6.85;100.00;102611.50;5071821;28;20041;-61
2022/03/28 01:38:01;;;;;;;17.20;3.97;;;;;;;6.76;100.00;102609.06;5089116;28;20056;-61
2022/03/28 01:40:30;;;;;;;19.27;4.30;;;;;;;6.70;100.00;102610.06;5072853;28;20040;-62
2022/03/28 01:42:59;;;;;;;19.92;3.97;;;;;;;6.74;100.00;102608.25;5076835;28;20798;-61
2022/03/28 01:45:27;;;;;;;26.17;4.90;;;;;;;6.65;100.00;102593.59;5086245;28;20047;-62
2022/03/28 01:47:57;;;;;;;19.40;4.60;;;;;;;6.66;100.00;102600.56;5084596;28;20070;-63
2022/03/28 01:50:26;;;;;;;20.35;4.47;;;;;;;6.70;100.00;102598.75;5076673;28;20053;-61
2022/03/28 01:52:54;;;;;;;22.70;4.60;;;;;;;6.65;100.00;102593.59;5083159;28;20052;-61
2022/03/28 01:55:24;;;;;;;17.65;4.43;;;;;;;6.63;100.00;102591.94;5075705;28;20041;-61
2022/03/28 01:57:53;;;;;;;20.13;4.82;;;;;;;6.64;100.00;102588.41;5075112;28;20073;-61
2022/03/28 02:00:23;;;;;;;15.30;3.75;;;;;;;6.64;100.00;102596.25;5089603;28;20040;-61
2022/03/28 02:02:52;;;;;;;19.58;5.20;;;;;;;6.66;100.00;102586.63;5091647;28;20195;-61
2022/03/28 02:05:21;;;;;;;22.77;5.38;;;;;;;6.60;100.00;102591.09;5075535;28;20614;-61
2022/03/28 02:07:50;;;;;;;14.55;4.40;;;;;;;6.49;100.00;102585.25;5075693;28;20430;-61
2022/03/28 02:10:19;;;;;;;21.88;5.20;;;;;;;6.42;100.00;102583.63;5070473;28;20052;-61
2022/03/28 02:12:50;;;;;;;19.45;5.78;;;;;;;6.38;100.00;102575.00;5088292;28;20503;-61
2022/03/28 02:15:18;;;;;;;19.27;4.30;;;;;;;6.29;100.00;102582.16;5078867;28;20047;-62
2022/03/28 02:17:47;;;;;;;14.95;4.47;;;;;;;6.35;100.00;102582.03;5088873;28;20039;-61
2022/03/28 02:20:16;;;;;;;18.20;4.07;;;;;;;6.42;100.00;102573.16;5074692;28;20116;-61
2022/03/28 02:22:46;;;;;;;23.92;5.47;;;;;;;6.47;100.00;102573.09;5074126;28;20110;-61
2022/03/28 02:25:16;;;;;;;20.00;4.10;;;;;;;6.48;100.00;102569.59;5081988;28;20043;-61
2022/03/28 02:27:45;;;;;;;22.17;5.15;;;;;;;6.47;100.00;102566.09;5090722;28;20044;-61
2022/03/28 02:30:15;;;;;;;19.20;4.90;;;;;;;6.40;100.00;102567.13;5070054;28;20044;-62
2022/03/28 02:32:44;;;;;;;18.17;4.68;;;;;;;6.41;100.00;102566.25;5072870;28;20513;-62
2022/03/28 02:35:13;;;;;;;20.60;5.15;;;;;;;6.38;100.00;102561.03;5080051;28;20044;-62
2022/03/28 02:37:41;;;;;;;14.80;4.88;;;;;;;6.30;100.00;102561.22;5068489;28;20079;-62
2022/03/28 02:40:12;;;;;;;22.02;4.55;;;;;;;6.13;100.00;102571.97;5066650;28;20033;-62
2022/03/28 02:42:40;;;;;;;24.17;4.80;;;;;;;6.18;100.00;102564.06;5059468;28;20486;-61
2022/03/28 02:45:09;;;;;;;24.95;4.50;;;;;;;6.06;100.00;102554.72;5062614;28;20040;-62
2022/03/28 02:47:39;;;;;;;19.50;4.97;;;;;;;6.02;100.00;102558.28;5063453;28;20090;-62
2022/03/28 02:50:08;;;;;;;17.65;5.25;;;;;;;6.10;100.00;102545.91;5057746;28;20051;-62
2022/03/28 02:52:37;;;;;;;15.80;4.80;;;;;;;5.94;100.00;102545.31;5052882;28;20442;-61
2022/03/28 02:55:06;;;;;;;18.40;5.72;;;;;;;6.02;100.00;102538.22;5056373;28;20053;-61
2022/03/28 02:57:34;;;;;;;20.52;4.97;;;;;;;5.90;100.00;102539.31;5055042;28;20041;-61
2022/03/28 03:00:04;;;;;;;26.98;5.80;;;;;;;5.92;100.00;102537.50;5065041;28;20064;-61
2022/03/28 03:02:32;;;;;;;24.20;5.57;;;;;;;5.88;100.00;102527.16;5089153;28;20048;-61
2022/03/28 03:05:02;;;;;;;19.95;5.55;;;;;;;5.88;100.00;102528.00;5077608;28;20067;-62
2022/03/28 03:07:30;;;;;;;20.30;5.38;;;;;;;5.83;100.00;102527.22;5089948;28;20110;-61
2022/03/28 03:09:58;;;;;;;19.77;5.57;;;;;;;5.76;100.00;102521.25;5084271;28;20063;-62
2022/03/28 03:12:26;;;;;;;19.10;5.57;;;;;;;5.83;100.00;102526.38;5076177;28;20043;-62
2022/03/28 03:14:54;;;;;;;24.60;5.95;;;;;;;5.84;100.00;102512.44;5089528;28;20048;-61
2022/03/28 03:17:25;;;;;;;20.25;5.28;;;;;;;5.78;100.00;102521.25;5085011;28;20085;-61
2022/03/28 03:19:53;;;;;;;19.95;5.63;;;;;;;5.73;100.00;102515.25;5078980;28;20044;-62
2022/03/28 03:22:23;;;;;;;20.83;6.10;;;;;;;5.73;100.00;102513.47;5081782;28;20062;-61
2022/03/28 03:24:51;;;;;;;20.38;6.32;;;;;;;5.55;100.00;102506.00;5082477;28;20056;-61
2022/03/28 03:27:19;;;;;;;23.17;5.93;;;;;;;5.61;100.00;102505.88;5072010;28;20120;-61
2022/03/28 03:29:47;;;;;;;19.90;5.15;;;;;;;5.56;100.00;102503.34;5083691;28;20044;-61
2022/03/28 03:32:15;;;;;;;26.23;6.35;;;;;;;5.63;100.00;102504.13;5088497;28;20109;-61
2022/03/28 03:34:46;;;;;;;15.35;5.05;;;;;;;5.59;100.00;102507.66;5078842;28;20102;-61
2022/03/28 03:37:14;;;;;;;16.42;4.82;;;;;;;5.59;100.00;102498.06;5081966;28;20467;-61
2022/03/28 03:39:43;;;;;;;17.85;5.22;;;;;;;5.62;100.00;102498.91;5073178;28;20484;-61
2022/03/28 03:42:12;;;;;;;19.77;5.25;;;;;;;5.56;100.00;102505.97;5081459;28;20056;-61
2022/03/28 03:44:40;;;;;;;20.83;6.05;;;;;;;5.59;100.00;102492.00;5084455;28;20094;-61
2022/03/28 03:47:09;;;;;;;20.48;5.93;;;;;;;5.56;100.00;102497.25;5088848;28;20056;-61
2022/03/28 03:49:37;;;;;;;19.10;5.55;;;;;;;5.47;100.00;102494.81;5089871;28;20075;-61
2022/03/28 03:52:06;;;;;;;22.50;6.20;;;;;;;5.41;100.00;102494.03;5072726;28;20048;-61
2022/03/28 03:54:34;;;;;;;23.30;6.25;;;;;;;5.43;100.00;102501.84;5076299;28;20129;-61
2022/03/28 03:57:04;;;;;;;14.55;6.07;;;;;;;5.36;100.00;102497.63;5075226;28;20059;-61
2022/03/28 03:59:32;;;;;;;19.80;5.93;;;;;;;5.30;100.00;102500.31;5086023;28;20037;-61
2022/03/28 04:02:00;;;;;;;19.83;5.75;;;;;;;5.28;100.00;102497.75;5075615;28;20032;-61
2022/03/28 04:04:28;;;;;;;23.20;6.22;;;;;;;5.28;100.00;102499.50;5073707;28;20375;-61
2022/03/28 04:06:56;;;;;;;16.00;6.18;;;;;;;5.16;100.00;102493.56;5082875;28;20082;-61
2022/03/28 04:09:25;;;;;;;21.27;6.43;;;;;;;5.17;100.00;102497.91;5076783;28;20502;-61
2022/03/28 04:11:53;;;;;;;17.98;5.97;;;;;;;5.15;100.00;102494.44;5071175;28;20507;-61
2022/03/28 04:14:22;;;;;;;16.58;6.15;;;;;;;5.19;100.00;102490.06;5071598;28;20056;-61
2022/03/28 04:16:50;;;;;;;17.98;6.35;;;;;;;5.20;100.00;102489.19;5071954;28;20048;-61
2022/03/28 04:19:18;;;;;;;14.05;5.50;;;;;;;5.08;100.00;102493.72;5086715;28;20578;-61
2022/03/28 04:21:48;;;;;;;16.58;5.63;;;;;;;5.02;100.00;102488.59;5077282;28;20049;-62
2022/03/28 04:24:16;;;;;;;22.88;7.22;;;;;;;5.05;100.00;102495.50;5073490;28;20727;-61
2022/03/28 04:26:45;;;;;;;16.52;6.05;;;;;;;5.12;100.00;102498.88;5078111;28;20101;-61
2022/03/28 04:29:14;;;;;;;21.42;6.50;;;;;;;5.24;100.00;102486.50;5079656;28;20037;-61
2022/03/28 04:31:43;;;;;;;17.58;5.68;;;;;;;5.29;100.00;102483.81;5079129;28;20063;-61
2022/03/28 04:34:12;;;;;;;13.85;5.45;;;;;;;5.33;100.00;102487.22;5067942;28;20051;-61
2022/03/28 04:36:41;;;;;;;19.02;6.20;;;;;;;5.25;100.00;102488.22;5080512;28;20048;-61
2022/03/28 04:39:11;;;;;;;14.77;6.18;;;;;;;5.16;100.00;102475.31;5084804;28;20047;-61
2022/03/28 04:41:47;;;;;;;19.25;6.40;;;;;;;5.16;100.00;102483.16;5076071;28;20052;-61
2022/03/28 04:44:16;;;;;;;19.05;6.68;;;;;;;5.13;100.00;102475.38;5078818;28;20075;-61
2022/03/28 04:46:50;;;;;;;14.02;5.68;;;;;;;5.08;100.00;102478.06;5085916;28;20048;-61
2022/03/28 04:49:18;;;;;;;18.10;6.50;;;;;;;5.06;100.00;102466.78;5070551;28;20127;-61
2022/03/28 04:51:46;;;;;;;15.15;5.93;;;;;;;5.04;100.00;102463.31;5080976;28;20040;-61
2022/03/28 04:54:15;;;;;;;16.23;6.68;;;;;;;4.89;100.00;102464.47;5085758;28;20466;-61
2022/03/28 04:56:45;;;;;;;16.13;6.40;;;;;;;4.76;100.00;102468.13;5085320;28;20044;-61
2022/03/28 04:59:14;;;;;;;20.08;6.78;;;;;;;4.67;100.00;102461.28;5079375;28;20384;-61
2022/03/28 05:01:42;;;;;;;19.67;7.72;;;;;;;4.67;100.00;102463.03;5075626;28;20079;-61
2022/03/28 05:04:12;;;;;;;15.18;6.57;;;;;;;4.65;100.00;102456.97;5090997;28;20493;-61
2022/03/28 05:06:40;;;;;;;14.90;7.63;;;;;;;4.56;100.00;102456.22;5077301;28;20044;-61
2022/03/28 05:09:09;;;;;;;18.08;6.85;;;;;;;4.60;100.00;102456.22;5072000;28;20474;-61
2022/03/28 05:11:37;;;;;;;16.50;7.07;;;;;;;4.72;100.00;102448.22;5077552;28;20058;-61
2022/03/28 05:14:07;;;;;;;17.95;7.72;;;;;;;4.68;100.00;102446.53;5081177;28;20124;-60
2022/03/28 05:16:37;;;;;;;17.70;7.50;;;;;;;4.62;100.00;102446.59;5058842;28;20122;-60
2022/03/28 05:19:05;;;;;;;17.80;7.70;;;;;;;4.54;100.00;102444.09;5054497;28;20087;-60
2022/03/28 05:21:34;;;;;;;22.33;7.72;;;;;;;4.54;100.00;102451.91;5054613;28;20064;-60
2022/03/28 05:24:02;;;;;;;21.15;7.60;;;;;;;4.60;100.00;102451.00;5054185;28;20037;-60
2022/03/28 05:26:31;;;;;;;18.90;7.47;;;;;;;4.69;100.00;102446.50;5052965;28;20045;-60
2022/03/28 05:29:00;;;;;;;19.13;7.65;;;;;;;4.69;100.00;102453.44;5054783;28;20506;-60
2022/03/28 05:31:28;;;;;;;15.77;6.78;;;;;;;4.73;100.00;102448.19;5054077;28;20132;-56
2022/03/28 05:33:56;;;;;;;19.92;6.97;;;;;;;4.83;100.00;102448.91;5074281;28;20040;-56
2022/03/28 05:36:25;;;;;;;18.23;7.35;;;;;;;4.61;100.00;102450.97;5074421;28;20380;-56
2022/03/28 05:38:54;;;;;;;18.38;7.93;;;;;;;4.54;100.00;102452.81;5067423;28;20079;-60
2022/03/28 05:41:22;;;;;;;19.35;7.68;;;;;;;4.30;100.00;102446.19;5067915;28;20044;-60
2022/03/28 05:43:51;;;;;;;20.73;8.48;;;;;;;4.39;100.00;102453.00;5070050;28;20059;-60
2022/03/28 05:46:19;;;;;;;21.98;8.48;;;;;;;4.30;100.00;102448.78;5054128;28;20463;-60
2022/03/28 05:48:53;;;;;;;17.30;8.43;;;;;;;4.13;100.00;102458.53;5053626;28;20095;-60
2022/03/28 05:51:24;;;;;;;22.13;9.90;;;;;;;4.05;100.00;102454.31;5052892;28;20052;-60
2022/03/28 05:53:52;;;;;;;20.25;9.25;;;;;;;4.06;100.00;102460.34;5054084;28;20056;-56
2022/03/28 05:56:21;;;;;;;19.90;8.82;;;;;;;4.11;100.00;102462.94;5053254;28;20409;-56
2022/03/28 05:58:49;;;;;;;22.20;9.10;;;;;;;4.09;100.00;102465.56;5053592;28;20063;-56
2022/03/28 06:01:18;;;;;;;18.00;9.05;;;;;;;4.11;100.00;102461.19;5053573;28;20052;-56
2022/03/28 06:03:46;;;;;;;19.23;8.50;;;;;;;4.13;100.00;102475.06;5052228;28;20055;-56
2022/03/28 06:06:15;;;;;;;14.43;7.72;;;;;;;4.02;100.00;102471.69;5053645;28;20387;-56
2022/03/28 06:08:43;;;;;;;15.57;7.72;;;;;;;4.01;100.00;102476.06;5053226;28;20072;-60
2022/03/28 06:11:12;;;;;;;17.58;7.97;;;;;;;3.98;100.00;102472.59;5052533;28;20415;-60
2022/03/28 06:13:43;;;;;;;19.80;7.95;;;;;;;4.02;100.00;102472.56;5053537;28;20510;-60
2022/03/28 06:16:11;;;;;;;21.20;9.63;;;;;;;4.03;100.00;102470.81;5053673;28;20059;-61
2022/03/28 06:18:43;;;;;;;19.42;8.80;;;;;;;4.06;100.00;102457.75;5053473;28;20037;-56
2022/03/28 06:21:11;;;;;;;20.80;9.20;;;;;;;3.94;100.00;102456.19;5053428;28;20124;-56
2022/03/28 06:23:39;;;;;;;18.63;7.93;;;;;;;4.03;100.00;102445.63;5053262;28;20463;-60
2022/03/28 06:26:08;;;;;;;18.25;8.77;;;;;;;3.91;100.00;102456.19;5051661;28;20044;-60
2022/03/28 06:28:36;;;;;;;19.20;8.57;;;;;;;3.91;100.00;102447.53;5053009;28;20582;-60
2022/03/28 06:31:06;;;;;;;14.00;7.65;;;;;;;3.74;100.00;102448.59;5052764;28;20571;-60
2022/03/28 06:33:34;;;;;;;13.90;7.25;;;;;;;3.83;100.00;102438.09;5052787;28;20381;-60
2022/03/28 06:36:03;;;;;;;14.82;7.85;;;;;;;3.64;100.00;102434.81;5051670;28;20061;-60
2022/03/28 06:38:31;;;;;;;14.95;8.27;;;;;;;3.51;100.00;102436.66;5053171;28;20049;-59
2022/03/28 06:40:59;;;;;;;20.70;8.60;;;;;;;3.64;100.00;102437.41;5053070;28;20048;-59
2022/03/28 06:43:28;;;;;;;19.35;8.20;;;;;;;3.66;100.00;102442.59;5052997;28;20094;-59
2022/03/28 06:45:56;;;;;;;14.93;7.72;;;;;;;3.83;100.00;102452.81;5052841;28;20529;-59
2022/03/28 06:48:25;;;;;;;13.57;7.55;;;;;;;3.90;100.00;102446.69;5052847;28;20044;-59
2022/03/28 06:51:00;;;;;;;13.35;7.00;;;;;;;4.08;100.00;102448.19;5052755;28;20056;-59
2022/03/28 06:53:29;;;;;;;14.50;7.65;;;;;;;4.13;100.00;102443.81;5052025;28;20116;-60
2022/03/28 06:55:57;;;;;;;16.73;7.20;;;;;;;4.05;100.00;102437.84;5052536;28;20045;-60
2022/03/28 06:58:26;;;;;;;13.80;7.65;;;;;;;4.15;100.00;102443.78;5052664;28;20549;-60
2022/03/28 07:00:56;;;;;;;14.32;7.32;;;;;;;4.15;100.00;102443.78;5052609;28;20056;-60
2022/03/28 07:03:26;;;;;;;18.92;8.07;;;;;;;4.14;100.00;102453.31;5052665;28;20074;-60
2022/03/28 07:05:54;;;;;;;14.30;7.43;;;;;;;4.23;100.00;102452.34;5052618;28;20471;-60
2022/03/28 07:08:22;;;;;;;19.65;9.43;;;;;;;4.28;100.00;102445.34;5052564;28;20064;-60
2022/03/28 07:10:50;;;;;;;16.15;8.43;;;;;;;4.43;100.00;102452.09;5052286;28;20084;-60
2022/03/28 07:13:19;;;;;;;18.08;8.43;;;;;;;4.40;100.00;102453.00;5052322;28;20107;-60
2022/03/28 07:15:47;;;;;;;17.98;9.43;;;;;;;4.28;100.00;102447.06;5052337;28;20048;-60
2022/03/28 07:18:19;;;;;;;17.20;8.35;;;;;;;4.37;100.00;102437.38;5052292;28;20128;-60
2022/03/28 07:20:50;;;;;;;18.10;8.70;;;;;;;4.45;100.00;102434.69;5052293;28;20041;-61
2022/03/28 07:23:19;;;;;;;17.40;9.40;;;;;;;4.44;100.00;102432.94;5052230;28;20365;-61
2022/03/28 07:25:47;;;;;;;22.52;10.73;;;;;;;4.51;100.00;102432.00;5052084;28;20087;-60
2022/03/28 07:28:17;;;;;;;26.00;11.90;;;;;;;4.59;100.00;102425.81;5052125;28;20072;-60
2022/03/28 07:30:48;;;;;;;18.88;9.20;;;;;;;4.72;100.00;102417.78;5052163;28;20045;-61
2022/03/28 07:33:16;;;;;;;22.23;10.35;;;;;;;4.72;100.00;102416.94;5052231;28;20041;-61
2022/03/28 07:35:45;;;;;;;24.88;11.32;;;;;;;4.66;100.00;102417.00;5051906;28;20040;-60
2022/03/28 07:38:15;;;;;;;37.20;13.63;;;;;;;4.65;100.00;102410.06;5051556;28;20056;-60
2022/03/28 07:40:45;;;;;;;26.67;11.13;;;;;;;4.64;100.00;102410.97;5051751;28;20045;-60
2022/03/28 07:43:13;;;;;;;23.27;10.30;;;;;;;4.65;100.00;102418.75;5051971;28;20048;-60
2022/03/28 07:45:41;;;;;;;26.92;11.98;;;;;;;4.81;100.00;102419.38;5051915;28;20049;-60
2022/03/28 07:48:10;;;;;;;33.45;12.95;;;;;;;4.83;100.00;102415.00;5051939;28;20110;-57
2022/03/28 07:50:38;;;;;;;29.65;11.73;;;;;;;5.00;100.00;102413.88;5051687;28;20045;-57
2022/03/28 07:53:07;;;;;;;21.27;10.40;;;;;;;4.94;100.00;102409.63;5051596;28;20384;-56
2022/03/28 07:55:37;;;;;;;22.02;10.35;;;;;;;5.08;100.00;102412.00;5051751;28;20080;-56
2022/03/28 07:58:06;;;;;;;23.52;11.63;;;;;;;5.05;100.00;102405.06;5051889;28;20384;-56
2022/03/28 08:00:34;;;;;;;19.48;9.65;;;;;;;5.18;100.00;102397.91;5051876;28;20068;-56
2022/03/28 08:03:03;;;;;;;17.13;9.45;;;;;;;5.27;100.00;102390.81;5052028;28;20102;-57
2022/03/28 08:05:31;;;;;;;21.42;9.43;;;;;;;5.40;100.00;102393.16;5055101;28;20049;-56
2022/03/28 08:08:00;;;;;;;24.33;9.88;;;;;;;5.51;100.00;102398.19;5055514;28;20044;-57
2022/03/28 08:10:28;;;;;;;17.35;8.95;;;;;;;5.60;100.00;102397.13;5055394;28;20068;-60
2022/03/28 08:12:58;;;;;;;20.55;9.70;;;;;;;5.67;100.00;102384.81;5055881;28;20492;-61
2022/03/28 08:15:26;;;;;;;21.77;9.50;;;;;;;5.78;100.00;102398.53;5055669;28;20049;-61
2022/03/28 08:17:58;;;;;;;28.20;11.88;;;;;;;5.82;100.00;102394.97;5055912;28;20040;-61
2022/03/28 08:20:27;;;;;;;23.08;10.27;;;;;;;5.84;100.00;102401.00;5055446;28;20047;-61
2022/03/28 08:22:55;;;;;;;27.85;11.52;;;;;;;5.89;100.00;102396.56;5055516;28;20041;-62
2022/03/28 08:25:24;;;;;;;25.45;11.10;;;;;;;5.96;100.00;102393.81;5055474;28;20051;-62
2022/03/28 08:27:52;;;;;;;24.33;11.50;;;;;;;6.09;100.00;102395.31;5055122;28;20045;-62
2022/03/28 08:30:22;;;;;;;24.60;11.10;;;;;;;6.08;100.00;102380.50;5055183;28;20045;-62
2022/03/28 08:32:51;;;;;;;29.50;13.88;;;;;;;6.19;100.00;102386.38;5055168;28;20044;-62
2022/03/28 08:35:20;;;;;;;35.80;15.68;;;;;;;6.24;100.00;102379.31;5054970;28;20128;-61
2022/03/28 08:37:49;;;;;;;35.17;15.20;;;;;;;6.13;100.00;102383.03;5055226;28;20365;-62
2022/03/28 08:40:18;;;;;;;27.38;13.45;;;;;;;6.22;100.00;102383.69;5055159;28;20049;-61
2022/03/28 08:42:47;;;;;;;30.50;13.98;;;;;;;6.14;100.00;102376.94;5055125;28;20214;-61
2022/03/28 08:45:17;;;;;;;26.63;11.43;;;;;;;6.28;100.00;102377.47;5054976;28;20047;-62
2022/03/28 08:47:47;;;;;;;24.65;11.68;;;;;;;6.41;100.00;102388.50;5055140;28;20076;-62
2022/03/28 08:50:40;;;;;;;20.63;10.40;;;;;;;6.30;100.00;102380.91;5054859;28;20431;-61
2022/03/28 08:53:08;;;;;;;;;;;;;;;6.38;100.00;102379.00;5055700;28;20083;-61
2022/03/28 08:55:38;;;;;;;27.95;10.48;;;;;;;6.49;100.00;102383.09;5054894;28;19970;-62
2022/03/28 08:58:07;;;;;;;24.55;10.55;;;;;;;6.58;100.00;102378.50;5054988;28;20045;-62
2022/03/28 09:00:35;;;;;;;23.35;10.57;;;;;;;6.76;100.00;102379.84;5054954;28;20052;-61
2022/03/28 09:03:05;;;;;;;21.60;10.25;;;;;;;6.77;100.00;102376.28;5055033;28;20052;-61
2022/03/28 09:05:35;;;;;;;23.27;10.57;;;;;;;7.02;100.00;102378.31;5054889;28;20056;-61
2022/03/28 09:08:08;;;;;;;21.58;9.18;;;;;;;7.13;100.00;102385.88;5054692;28;20069;-61
2022/03/28 09:10:46;;;;;;;20.88;9.90;;;;;;;7.08;100.00;102386.00;5053967;28;20415;-62
2022/03/28 09:13:17;;;;;;;22.63;10.00;;;;;;;7.19;100.00;102380.47;5054394;28;20499;-57
2022/03/28 09:15:50;;;;;;;20.45;9.48;;;;;;;7.20;100.00;102369.13;5053850;28;20056;-56
2022/03/28 09:18:25;;;;;;;22.98;10.25;;;;;;;7.47;100.00;102378.88;5054570;28;20060;-57
2022/03/28 09:20:55;;;;;;;21.08;10.35;;;;;;;7.52;100.00;102369.16;5054697;28;20099;-56
2022/03/28 09:23:38;;;;;;;22.15;10.57;;;;;;;7.72;100.00;102361.56;5054626;28;20055;-56
2022/03/28 09:26:10;;;;;;;20.25;9.60;;;;;;;8.00;100.00;102367.75;5054559;28;20049;-59
2022/03/28 09:28:47;;;;;;;20.90;9.70;;;;;;;8.11;100.00;102366.53;5054401;28;20056;-56
2022/03/28 09:31:21;;;;;;;20.20;10.15;;;;;;;8.32;100.00;102352.78;5054121;28;20103;-57
2022/03/28 09:34:09;;;;;;;24.88;10.73;;;;;;;8.68;100.00;102348.16;5054545;28;20395;-56
2022/03/28 09:36:44;;;;;;;23.80;10.73;;;;;;;8.83;99.38;102346.78;5061403;28;20036;-57
2022/03/28 09:39:17;;;;;;;18.90;9.48;;;;;;;8.88;98.35;102344.03;5068222;28;20079;-57
2022/03/28 09:41:46;;;;;;;21.70;9.52;;;;;;;9.23;97.13;102345.41;5053888;28;20080;-57
2022/03/28 09:44:15;;;;;;;20.33;9.07;;;;;;;9.37;95.86;102344.91;5053508;28;20051;-62
2022/03/28 09:46:44;;;;;;;18.73;8.98;;;;;;;9.46;94.69;102335.84;5053763;28;20045;-62
2022/03/28 09:49:24;;;;;;;25.90;11.70;;;;;;;9.82;92.82;102322.25;5054034;28;20040;-62
2022/03/28 09:52:04;;;;;;;19.55;9.85;;;;;;;9.91;92.51;102332.41;5054079;28;20120;-62
2022/03/28 09:54:49;;;;;;;17.25;8.82;;;;;;;10.27;90.87;102331.88;5053765;28;20091;-62
2022/03/28 09:57:22;;;;;;;16.70;8.18;;;;;;;10.42;89.28;102326.94;5053687;28;20053;-63
2022/03/28 09:59:51;;;;;;;15.43;7.53;;;;;;;10.54;87.67;102329.06;5053848;28;20103;-62
2022/03/28 10:02:22;;;;;;;18.27;8.60;;;;;;;10.64;87.45;102326.91;5053544;28;20049;-62
2022/03/28 10:04:54;;;;;;;15.75;8.25;;;;;;;10.90;86.08;102317.91;5052428;28;20037;-62
2022/03/28 10:07:24;;;;;;;16.58;8.15;;;;;;;11.11;85.60;102315.25;5053675;28;20063;-63
2022/03/28 10:09:53;;;;;;;15.23;8.15;;;;;;;11.19;85.91;102313.13;5053550;28;20136;-62
2022/03/28 10:12:23;;;;;;;16.70;8.82;;;;;;;11.42;83.77;102317.38;5052066;28;20122;-62
2022/03/28 10:14:57;;;;;;;14.80;7.95;;;;;;;11.31;84.85;102312.59;5053586;28;20379;-62
2022/03/28 10:17:28;;;;;;;17.08;9.48;;;;;;;11.57;83.51;102313.19;5073400;28;20045;-62
2022/03/28 10:19:58;;;;;;;17.65;8.82;;;;;;;11.31;85.03;102309.09;5073511;28;20087;-63
2022/03/28 10:22:41;;;;;;;18.02;8.85;;;;;;;11.86;82.36;102303.06;5066247;28;20056;-62
2022/03/28 10:25:16;;;;;;;16.85;8.60;;;;;;;11.96;81.57;102301.72;5052561;28;20550;-62
2022/03/28 10:27:45;;;;;;;17.73;8.65;;;;;;;12.06;82.07;102299.50;5053320;28;20372;-63
2022/03/28 10:30:20;;;;;;;16.50;8.77;;;;;;;12.66;80.34;102291.25;5053073;28;20072;-63
2022/03/28 10:32:48;;;;;;;18.65;8.48;;;;;;;12.67;78.51;102292.97;5053091;28;20061;-63
2022/03/28 10:35:18;;;;;;;14.85;8.10;;;;;;;13.12;77.22;102292.47;5052914;28;20041;-62
2022/03/28 10:37:49;;;;;;;17.90;9.02;;;;;;;12.97;77.63;102281.75;5052883;28;20128;-64
2022/03/28 10:40:26;;;;;;;15.55;8.85;;;;;;;13.07;76.99;102278.63;5053182;28;20488;-62
2022/03/28 10:43:02;;;;;;;14.85;8.55;;;;;;;13.40;78.58;102275.16;5053198;28;20051;-62
2022/03/28 10:45:36;;;;;;;15.00;9.05;;;;;;;13.46;75.63;102266.91;5052869;28;20583;-57
2022/03/28 10:48:05;;;;;;;17.08;9.20;;;;;;;13.79;74.61;102271.25;5052212;28;20502;-57
2022/03/28 10:50:37;;;;;;;15.00;9.15;;;;;;;14.10;73.60;102265.06;5052325;28;20416;-58
2022/03/28 10:53:11;;;;;;;15.30;8.55;;;;;;;14.07;72.65;102261.72;5052237;28;20098;-58
2022/03/28 10:55:46;;;;;;;17.70;9.30;;;;;;;14.68;71.59;102255.53;5052544;28;20048;-58
2022/03/28 10:58:18;;;;;;;16.50;9.13;;;;;;;14.96;69.21;102253.00;5052559;28;20533;-58
2022/03/28 11:01:24;;;;;;;14.77;8.93;;;;;;;14.96;67.25;102251.19;5051575;28;20048;-57
2022/03/28 11:03:55;;;;;;;15.68;9.15;;;;;;;14.98;68.08;102253.72;5052733;28;20560;-58
2022/03/28 11:06:46;;;;;;;16.77;9.52;;;;;;;15.43;67.90;102257.09;5052727;28;20123;-57
2022/03/28 11:09:15;;;;;;;15.18;8.93;;;;;;;15.62;66.83;102253.28;5052598;28;20048;-57
2022/03/28 11:11:57;;;;;;;17.58;10.55;;;;;;;15.42;66.30;102250.13;5052303;28;20052;-57
2022/03/28 11:14:44;;;;;;;17.25;10.05;;;;;;;15.70;66.14;102249.16;5052513;28;20068;-57
2022/03/28 11:17:17;;;;;;;16.92;9.77;;;;;;;15.95;65.64;102239.66;5052472;28;20385;-58
2022/03/28 11:19:56;;;;;;;16.50;10.43;;;;;;;16.17;64.11;102243.53;5052393;28;20439;-57
2022/03/28 11:22:47;;;;;;;16.25;10.57;;;;;;;16.45;63.00;102229.25;5052326;28;20583;-58
2022/03/28 11:25:42;;;;;;;17.45;10.50;;;;;;;16.55;62.99;102225.00;5052370;28;20052;-57
2022/03/28 11:28:25;;;;;;;19.17;10.57;;;;;;;16.66;61.76;102218.97;5052609;28;20075;-58
2022/03/28 11:31:00;;;;;;;15.77;8.88;;;;;;;17.03;61.72;102212.91;5052281;28;20131;-63
2022/03/28 11:33:34;;;;;;;13.93;8.82;;;;;;;16.93;61.37;102203.88;5052363;28;20041;-63